sensor_id;sensor_type;location;lat;lon;timestamp;temperature;humidity
8180;DHT22;4131;48.810;11.892;2023-02-28T00:00:05;-2.60;99.90
8180;DHT22;4131;48.810;11.892;2023-02-28T00:02:39;-2.60;99.90
8180;DHT22;4131;48.810;11.892;2023-02-28T00:05:09;-2.70;99.90
8180;DHT22;4131;48.810;11.892;2023-02-28T00:07:38;-2.70;99.90
8180;DHT22;4131;48.810;11.892;2023-02-28T00:10:08;-2.70;99.90
8180;DHT22;4131;48.810;11.892;2023-02-28T00:12:37;-2.70;99.90
8180;DHT22;4131;48.810;11.892;2023-02-28T00:15:06;-2.70;99.90
8180;DHT22;4131;48.810;11.892;2023-02-28T00:20:06;-2.80;99.90
8180;DHT22;4131;48.810;11.892;2023-02-28T00:22:37;-2.70;99.90
8180;DHT22;4131;48.810;11.892;2023-02-28T00:25:06;-2.70;99.90
8180;DHT22;4131;48.810;11.892;2023-02-28T00:30:04;-2.80;99.90
8180;DHT22;4131;48.810;11.892;2023-02-28T00:32:33;-2.80;99.90
8180;DHT22;4131;48.810;11.892;2023-02-28T00:37:32;-2.90;99.90
8180;DHT22;4131;48.810;11.892;2023-02-28T00:54:55;-2.90;99.90
8180;DHT22;4131;48.810;11.892;2023-02-28T01:12:17;-3.00;99.90
8180;DHT22;4131;48.810;11.892;2023-02-28T01:14:45;-3.00;99.90
8180;DHT22;4131;48.810;11.892;2023-02-28T01:29:36;-3.10;99.90
8180;DHT22;4131;48.810;11.892;2023-02-28T01:34:33;-3.20;99.90
8180;DHT22;4131;48.810;11.892;2023-02-28T01:41:58;-3.20;99.90
8180;DHT22;4131;48.810;11.892;2023-02-28T01:45:00;-3.10;99.90
8180;DHT22;4131;48.810;11.892;2023-02-28T01:47:31;-3.10;99.90
8180;DHT22;4131;48.810;11.892;2023-02-28T01:50:01;-3.10;99.90
8180;DHT22;4131;48.810;11.892;2023-02-28T01:52:32;-3.10;99.90
8180;DHT22;4131;48.810;11.892;2023-02-28T01:55:02;-3.20;99.90
8180;DHT22;4131;48.810;11.892;2023-02-28T01:57:34;-3.10;99.90
8180;DHT22;4131;48.810;11.892;2023-02-28T02:00:08;-3.20;99.90
8180;DHT22;4131;48.810;11.892;2023-02-28T02:02:42;-3.20;99.90
8180;DHT22;4131;48.810;11.892;2023-02-28T02:05:14;-3.30;99.90
8180;DHT22;4131;48.810;11.892;2023-02-28T02:07:44;-3.30;99.90
8180;DHT22;4131;48.810;11.892;2023-02-28T02:10:16;-3.40;99.90
8180;DHT22;4131;48.810;11.892;2023-02-28T02:13:10;-3.40;99.90
8180;DHT22;4131;48.810;11.892;2023-02-28T02:15:49;-3.40;99.90
8180;DHT22;4131;48.810;11.892;2023-02-28T02:18:28;-3.50;99.90
8180;DHT22;4131;48.810;11.892;2023-02-28T02:21:40;-3.50;99.90
8180;DHT22;4131;48.810;11.892;2023-02-28T02:24:46;-3.50;99.90
8180;DHT22;4131;48.810;11.892;2023-02-28T02:27:23;-3.60;99.90
8180;DHT22;4131;48.810;11.892;2023-02-28T02:30:33;-3.50;99.90
8180;DHT22;4131;48.810;11.892;2023-02-28T02:33:35;-3.60;99.90
8180;DHT22;4131;48.810;11.892;2023-02-28T02:36:15;-3.60;99.90
8180;DHT22;4131;48.810;11.892;2023-02-28T02:38:49;-3.60;99.90
8180;DHT22;4131;48.810;11.892;2023-02-28T02:41:24;-3.70;99.90
8180;DHT22;4131;48.810;11.892;2023-02-28T02:44:01;-3.70;99.90
8180;DHT22;4131;48.810;11.892;2023-02-28T02:46:33;-3.70;99.90
8180;DHT22;4131;48.810;11.892;2023-02-28T02:49:05;-3.80;99.90
8180;DHT22;4131;48.810;11.892;2023-02-28T02:51:38;-3.70;99.90
8180;DHT22;4131;48.810;11.892;2023-02-28T02:54:11;-3.80;99.90
8180;DHT22;4131;48.810;11.892;2023-02-28T02:56:43;-3.80;99.90
8180;DHT22;4131;48.810;11.892;2023-02-28T02:59:15;-3.80;99.90
8180;DHT22;4131;48.810;11.892;2023-02-28T03:01:51;-3.70;99.90
8180;DHT22;4131;48.810;11.892;2023-02-28T03:04:21;-3.70;99.90
8180;DHT22;4131;48.810;11.892;2023-02-28T03:06:51;-3.80;99.90
8180;DHT22;4131;48.810;11.892;2023-02-28T03:09:21;-3.80;99.90
8180;DHT22;4131;48.810;11.892;2023-02-28T03:11:51;-3.80;99.90
8180;DHT22;4131;48.810;11.892;2023-02-28T03:14:26;-3.80;99.90
8180;DHT22;4131;48.810;11.892;2023-02-28T03:17:25;-3.90;99.90
8180;DHT22;4131;48.810;11.892;2023-02-28T03:20:02;-3.80;99.90
8180;DHT22;4131;48.810;11.892;2023-02-28T03:22:46;-3.80;99.90
8180;DHT22;4131;48.810;11.892;2023-02-28T03:25:25;-3.80;99.90
8180;DHT22;4131;48.810;11.892;2023-02-28T03:28:09;-3.70;99.90
8180;DHT22;4131;48.810;11.892;2023-02-28T03:30:45;-3.80;99.90
8180;DHT22;4131;48.810;11.892;2023-02-28T03:33:21;-3.80;99.90
8180;DHT22;4131;48.810;11.892;2023-02-28T03:35:53;-3.80;99.90
8180;DHT22;4131;48.810;11.892;2023-02-28T03:38:28;-3.80;99.90
8180;DHT22;4131;48.810;11.892;2023-02-28T03:41:00;-3.90;99.90
8180;DHT22;4131;48.810;11.892;2023-02-28T03:43:34;-3.90;99.90
8180;DHT22;4131;48.810;11.892;2023-02-28T03:46:08;-3.80;99.90
8180;DHT22;4131;48.810;11.892;2023-02-28T03:48:40;-3.80;99.90
8180;DHT22;4131;48.810;11.892;2023-02-28T03:51:14;-3.80;99.90
8180;DHT22;4131;48.810;11.892;2023-02-28T03:53:49;-3.90;99.90
8180;DHT22;4131;48.810;11.892;2023-02-28T03:56:21;-3.90;99.90
8180;DHT22;4131;48.810;11.892;2023-02-28T03:58:55;-3.90;99.90
8180;DHT22;4131;48.810;11.892;2023-02-28T04:01:28;-3.90;99.90
8180;DHT22;4131;48.810;11.892;2023-02-28T04:03:59;-4.00;99.90
8180;DHT22;4131;48.810;11.892;2023-02-28T04:08:57;-3.90;99.90
8180;DHT22;4131;48.810;11.892;2023-02-28T04:11:30;-3.90;99.90
8180;DHT22;4131;48.810;11.892;2023-02-28T04:16:30;-3.90;99.90
8180;DHT22;4131;48.810;11.892;2023-02-28T04:19:02;-4.00;99.90
8180;DHT22;4131;48.810;11.892;2023-02-28T04:24:02;-3.90;99.90
8180;DHT22;4131;48.810;11.892;2023-02-28T04:29:00;-3.90;99.90
8180;DHT22;4131;48.810;11.892;2023-02-28T04:41:24;-4.00;99.90
8180;DHT22;4131;48.810;11.892;2023-02-28T04:56:18;-4.00;99.90
8180;DHT22;4131;48.810;11.892;2023-02-28T04:58:47;-4.00;99.90
8180;DHT22;4131;48.810;11.892;2023-02-28T05:01:19;-4.00;99.90
8180;DHT22;4131;48.810;11.892;2023-02-28T05:03:48;-4.00;99.90
8180;DHT22;4131;48.810;11.892;2023-02-28T05:11:16;-3.90;99.90
8180;DHT22;4131;48.810;11.892;2023-02-28T05:13:47;-4.00;99.90
8180;DHT22;4131;48.810;11.892;2023-02-28T05:18:44;-4.00;99.90
8180;DHT22;4131;48.810;11.892;2023-02-28T05:21:25;-3.90;99.90
8180;DHT22;4131;48.810;11.892;2023-02-28T05:23:55;-3.90;99.90
8180;DHT22;4131;48.810;11.892;2023-02-28T05:26:24;-3.90;99.90
8180;DHT22;4131;48.810;11.892;2023-02-28T05:28:54;-4.00;99.90
8180;DHT22;4131;48.810;11.892;2023-02-28T05:33:52;-4.10;99.90
8180;DHT22;4131;48.810;11.892;2023-02-28T05:41:18;-4.20;99.90
8180;DHT22;4131;48.810;11.892;2023-02-28T05:43:47;-4.10;99.90
8180;DHT22;4131;48.810;11.892;2023-02-28T05:46:17;-4.10;99.90
8180;DHT22;4131;48.810;11.892;2023-02-28T05:48:47;-4.10;99.90
8180;DHT22;4131;48.810;11.892;2023-02-28T06:01:41;-4.20;99.90
8180;DHT22;4131;48.810;11.892;2023-02-28T06:04:17;-4.20;99.90
8180;DHT22;4131;48.810;11.892;2023-02-28T06:06:57;-4.20;99.90
8180;DHT22;4131;48.810;11.892;2023-02-28T06:16:52;-4.30;99.90
8180;DHT22;4131;48.810;11.892;2023-02-28T06:26:49;-4.00;99.90
8180;DHT22;4131;48.810;11.892;2023-02-28T06:29:17;-4.00;99.90
8180;DHT22;4131;48.810;11.892;2023-02-28T06:31:46;-3.90;99.90
8180;DHT22;4131;48.810;11.892;2023-02-28T06:34:16;-3.80;99.90
8180;DHT22;4131;48.810;11.892;2023-02-28T06:44:22;-3.70;99.90
8180;DHT22;4131;48.810;11.892;2023-02-28T06:49:20;-3.60;99.90
8180;DHT22;4131;48.810;11.892;2023-02-28T06:56:45;-3.40;99.90
8180;DHT22;4131;48.810;11.892;2023-02-28T07:01:42;-3.20;99.90
8180;DHT22;4131;48.810;11.892;2023-02-28T07:04:10;-3.10;99.90
8180;DHT22;4131;48.810;11.892;2023-02-28T07:06:41;-3.00;99.90
8180;DHT22;4131;48.810;11.892;2023-02-28T07:09:09;-3.10;99.90
8180;DHT22;4131;48.810;11.892;2023-02-28T07:11:37;-3.00;99.90
8180;DHT22;4131;48.810;11.892;2023-02-28T07:19:02;-2.80;99.90
8180;DHT22;4131;48.810;11.892;2023-02-28T07:24:00;-2.50;99.90
8180;DHT22;4131;48.810;11.892;2023-02-28T07:31:25;-2.40;99.90
8180;DHT22;4131;48.810;11.892;2023-02-28T07:33:53;-2.30;99.90
8180;DHT22;4131;48.810;11.892;2023-02-28T07:36:23;-2.20;99.90
8180;DHT22;4131;48.810;11.892;2023-02-28T07:38:51;-2.10;99.90
8180;DHT22;4131;48.810;11.892;2023-02-28T07:41:22;-2.00;99.90
8180;DHT22;4131;48.810;11.892;2023-02-28T07:46:24;-1.80;99.90
8180;DHT22;4131;48.810;11.892;2023-02-28T07:51:26;-1.60;99.90
8180;DHT22;4131;48.810;11.892;2023-02-28T07:56:24;-1.40;99.90
8180;DHT22;4131;48.810;11.892;2023-02-28T07:58:52;-1.30;99.90
8180;DHT22;4131;48.810;11.892;2023-02-28T08:01:20;-1.20;99.90
8180;DHT22;4131;48.810;11.892;2023-02-28T08:03:49;-1.00;99.90
8180;DHT22;4131;48.810;11.892;2023-02-28T08:06:19;-0.70;99.90
8180;DHT22;4131;48.810;11.892;2023-02-28T08:08:47;-0.60;99.90
8180;DHT22;4131;48.810;11.892;2023-02-28T08:11:16;-0.40;99.90
8180;DHT22;4131;48.810;11.892;2023-02-28T08:13:46;-0.40;99.90
8180;DHT22;4131;48.810;11.892;2023-02-28T08:16:14;-0.30;99.90
8180;DHT22;4131;48.810;11.892;2023-02-28T08:18:48;-0.20;99.90
8180;DHT22;4131;48.810;11.892;2023-02-28T08:21:18;-0.20;99.90
8180;DHT22;4131;48.810;11.892;2023-02-28T08:23:47;0.00;99.90
8180;DHT22;4131;48.810;11.892;2023-02-28T08:26:15;0.40;99.90
8180;DHT22;4131;48.810;11.892;2023-02-28T08:28:44;0.80;99.90
8180;DHT22;4131;48.810;11.892;2023-02-28T08:31:15;1.00;99.90
8180;DHT22;4131;48.810;11.892;2023-02-28T08:33:43;1.40;99.90
8180;DHT22;4131;48.810;11.892;2023-02-28T08:36:12;1.50;99.90
8180;DHT22;4131;48.810;11.892;2023-02-28T08:38:40;1.70;99.90
8180;DHT22;4131;48.810;11.892;2023-02-28T08:41:11;1.70;99.90
8180;DHT22;4131;48.810;11.892;2023-02-28T08:43:39;2.00;99.90
8180;DHT22;4131;48.810;11.892;2023-02-28T08:46:10;2.60;99.90
8180;DHT22;4131;48.810;11.892;2023-02-28T08:48:41;3.10;99.90
8180;DHT22;4131;48.810;11.892;2023-02-28T08:51:10;3.10;99.90
8180;DHT22;4131;48.810;11.892;2023-02-28T08:53:40;3.10;99.90
8180;DHT22;4131;48.810;11.892;2023-02-28T08:56:11;2.90;99.90
8180;DHT22;4131;48.810;11.892;2023-02-28T08:58:40;2.60;99.90
8180;DHT22;4131;48.810;11.892;2023-02-28T09:01:09;2.20;99.90
8180;DHT22;4131;48.810;11.892;2023-02-28T09:03:39;2.10;99.90
8180;DHT22;4131;48.810;11.892;2023-02-28T09:06:09;2.20;99.90
8180;DHT22;4131;48.810;11.892;2023-02-28T09:08:38;2.20;99.90
8180;DHT22;4131;48.810;11.892;2023-02-28T09:11:06;2.30;99.90
8180;DHT22;4131;48.810;11.892;2023-02-28T09:13:35;2.60;99.90
8180;DHT22;4131;48.810;11.892;2023-02-28T09:16:04;3.20;99.90
8180;DHT22;4131;48.810;11.892;2023-02-28T09:18:34;3.70;99.90
8180;DHT22;4131;48.810;11.892;2023-02-28T09:21:07;4.20;99.90
8180;DHT22;4131;48.810;11.892;2023-02-28T09:23:35;4.40;99.90
8180;DHT22;4131;48.810;11.892;2023-02-28T09:26:05;4.80;99.90
8180;DHT22;4131;48.810;11.892;2023-02-28T09:28:34;6.10;99.90
8180;DHT22;4131;48.810;11.892;2023-02-28T09:31:02;5.30;99.90
8180;DHT22;4131;48.810;11.892;2023-02-28T09:33:32;5.20;99.90
8180;DHT22;4131;48.810;11.892;2023-02-28T09:36:02;5.50;99.90
8180;DHT22;4131;48.810;11.892;2023-02-28T09:38:32;7.20;99.90
8180;DHT22;4131;48.810;11.892;2023-02-28T09:41:03;5.90;99.90
8180;DHT22;4131;48.810;11.892;2023-02-28T09:43:35;5.90;99.90
8180;DHT22;4131;48.810;11.892;2023-02-28T09:46:14;7.20;99.90
8180;DHT22;4131;48.810;11.892;2023-02-28T09:48:47;7.40;99.90
8180;DHT22;4131;48.810;11.892;2023-02-28T09:51:29;7.50;99.90
8180;DHT22;4131;48.810;11.892;2023-02-28T09:54:00;9.00;99.90
8180;DHT22;4131;48.810;11.892;2023-02-28T09:56:33;7.60;99.90
8180;DHT22;4131;48.810;11.892;2023-02-28T09:59:09;8.70;99.90
8180;DHT22;4131;48.810;11.892;2023-02-28T10:01:43;7.20;99.90
8180;DHT22;4131;48.810;11.892;2023-02-28T10:04:33;7.90;99.90
8180;DHT22;4131;48.810;11.892;2023-02-28T10:07:11;7.20;99.90
8180;DHT22;4131;48.810;11.892;2023-02-28T10:09:48;7.30;99.90
8180;DHT22;4131;48.810;11.892;2023-02-28T10:12:20;7.70;99.90
8180;DHT22;4131;48.810;11.892;2023-02-28T10:14:51;8.00;99.90
8180;DHT22;4131;48.810;11.892;2023-02-28T10:17:23;8.40;99.90
8180;DHT22;4131;48.810;11.892;2023-02-28T10:19:59;7.70;99.90
8180;DHT22;4131;48.810;11.892;2023-02-28T10:22:41;6.80;99.90
8180;DHT22;4131;48.810;11.892;2023-02-28T10:25:19;6.10;99.90
8180;DHT22;4131;48.810;11.892;2023-02-28T10:27:48;5.20;99.90
8180;DHT22;4131;48.810;11.892;2023-02-28T10:32:50;4.90;99.90
8180;DHT22;4131;48.810;11.892;2023-02-28T10:35:21;5.10;99.90
8180;DHT22;4131;48.810;11.892;2023-02-28T10:37:51;5.10;99.90
8180;DHT22;4131;48.810;11.892;2023-02-28T10:40:33;5.90;99.90
8180;DHT22;4131;48.810;11.892;2023-02-28T10:43:04;5.30;99.90
8180;DHT22;4131;48.810;11.892;2023-02-28T10:45:33;7.70;99.90
8180;DHT22;4131;48.810;11.892;2023-02-28T10:48:04;7.40;99.90
8180;DHT22;4131;48.810;11.892;2023-02-28T10:50:37;7.70;99.90
8180;DHT22;4131;48.810;11.892;2023-02-28T10:53:28;8.50;99.90
8180;DHT22;4131;48.810;11.892;2023-02-28T10:56:16;8.40;99.90
8180;DHT22;4131;48.810;11.892;2023-02-28T10:58:51;8.80;99.90
8180;DHT22;4131;48.810;11.892;2023-02-28T11:01:21;9.50;99.90
8180;DHT22;4131;48.810;11.892;2023-02-28T11:03:50;9.50;99.90
8180;DHT22;4131;48.810;11.892;2023-02-28T11:06:21;10.20;99.90
8180;DHT22;4131;48.810;11.892;2023-02-28T11:08:52;11.10;99.90
8180;DHT22;4131;48.810;11.892;2023-02-28T11:11:25;11.20;99.90
8180;DHT22;4131;48.810;11.892;2023-02-28T11:13:58;11.60;99.90
8180;DHT22;4131;48.810;11.892;2023-02-28T11:16:33;11.40;99.90
8180;DHT22;4131;48.810;11.892;2023-02-28T11:19:02;12.20;99.90
8180;DHT22;4131;48.810;11.892;2023-02-28T11:21:33;12.20;99.90
8180;DHT22;4131;48.810;11.892;2023-02-28T11:24:04;10.80;99.90
8180;DHT22;4131;48.810;11.892;2023-02-28T11:26:42;10.50;99.90
8180;DHT22;4131;48.810;11.892;2023-02-28T11:29:16;10.60;99.90
8180;DHT22;4131;48.810;11.892;2023-02-28T11:32:05;11.20;99.90
8180;DHT22;4131;48.810;11.892;2023-02-28T11:34:36;11.40;99.90
8180;DHT22;4131;48.810;11.892;2023-02-28T11:37:10;11.40;99.90
8180;DHT22;4131;48.810;11.892;2023-02-28T11:39:39;11.40;99.90
8180;DHT22;4131;48.810;11.892;2023-02-28T11:42:35;11.60;99.90
8180;DHT22;4131;48.810;11.892;2023-02-28T11:45:16;12.00;99.90
8180;DHT22;4131;48.810;11.892;2023-02-28T11:47:50;11.80;99.90
8180;DHT22;4131;48.810;11.892;2023-02-28T11:50:32;11.90;99.90
8180;DHT22;4131;48.810;11.892;2023-02-28T11:53:14;12.60;99.90
8180;DHT22;4131;48.810;11.892;2023-02-28T11:55:47;12.40;99.90
8180;DHT22;4131;48.810;11.892;2023-02-28T11:58:29;12.50;99.90
8180;DHT22;4131;48.810;11.892;2023-02-28T12:01:27;13.60;99.90
8180;DHT22;4131;48.810;11.892;2023-02-28T12:04:07;13.30;99.90
8180;DHT22;4131;48.810;11.892;2023-02-28T12:06:43;13.10;99.90
8180;DHT22;4131;48.810;11.892;2023-02-28T12:09:26;13.00;99.90
8180;DHT22;4131;48.810;11.892;2023-02-28T12:12:03;13.40;99.90
8180;DHT22;4131;48.810;11.892;2023-02-28T12:14:53;13.30;99.90
8180;DHT22;4131;48.810;11.892;2023-02-28T12:17:51;12.70;99.90
8180;DHT22;4131;48.810;11.892;2023-02-28T12:20:32;12.20;99.90
8180;DHT22;4131;48.810;11.892;2023-02-28T12:23:16;13.00;99.90
8180;DHT22;4131;48.810;11.892;2023-02-28T12:28:42;13.50;99.90
8180;DHT22;4131;48.810;11.892;2023-02-28T12:31:17;12.70;99.90
8180;DHT22;4131;48.810;11.892;2023-02-28T12:33:48;13.10;99.90
8180;DHT22;4131;48.810;11.892;2023-02-28T12:36:19;13.20;99.90
8180;DHT22;4131;48.810;11.892;2023-02-28T12:38:53;12.50;99.90
8180;DHT22;4131;48.810;11.892;2023-02-28T12:41:26;13.20;99.90
8180;DHT22;4131;48.810;11.892;2023-02-28T12:44:01;13.40;99.90
8180;DHT22;4131;48.810;11.892;2023-02-28T12:46:34;13.50;99.90
8180;DHT22;4131;48.810;11.892;2023-02-28T12:49:08;12.80;99.90
8180;DHT22;4131;48.810;11.892;2023-02-28T12:51:38;11.60;99.90
8180;DHT22;4131;48.810;11.892;2023-02-28T12:54:16;11.30;99.90
8180;DHT22;4131;48.810;11.892;2023-02-28T12:56:52;12.10;99.90
8180;DHT22;4131;48.810;11.892;2023-02-28T12:59:26;12.80;99.90
8180;DHT22;4131;48.810;11.892;2023-02-28T13:02:09;12.40;99.90
8180;DHT22;4131;48.810;11.892;2023-02-28T13:05:00;12.10;99.90
8180;DHT22;4131;48.810;11.892;2023-02-28T13:07:57;12.10;99.90
8180;DHT22;4131;48.810;11.892;2023-02-28T13:10:39;12.70;99.90
8180;DHT22;4131;48.810;11.892;2023-02-28T13:13:18;12.40;99.90
8180;DHT22;4131;48.810;11.892;2023-02-28T13:15:59;12.30;99.90
8180;DHT22;4131;48.810;11.892;2023-02-28T13:18:34;13.20;99.90
8180;DHT22;4131;48.810;11.892;2023-02-28T13:21:05;12.30;99.90
8180;DHT22;4131;48.810;11.892;2023-02-28T13:23:40;12.50;99.90
8180;DHT22;4131;48.810;11.892;2023-02-28T13:26:08;12.80;99.90
8180;DHT22;4131;48.810;11.892;2023-02-28T13:32:18;12.90;99.90
8180;DHT22;4131;48.810;11.892;2023-02-28T13:35:12;13.20;99.90
8180;DHT22;4131;48.810;11.892;2023-02-28T13:37:47;12.60;99.90
8180;DHT22;4131;48.810;11.892;2023-02-28T13:40:30;12.90;99.90
8180;DHT22;4131;48.810;11.892;2023-02-28T13:43:08;14.30;99.90
8180;DHT22;4131;48.810;11.892;2023-02-28T13:45:36;11.60;99.90
8180;DHT22;4131;48.810;11.892;2023-02-28T13:48:16;11.40;99.90
8180;DHT22;4131;48.810;11.892;2023-02-28T13:53:47;10.60;99.90
8180;DHT22;4131;48.810;11.892;2023-02-28T13:56:26;10.30;99.90
8180;DHT22;4131;48.810;11.892;2023-02-28T13:59:01;10.20;99.90
8180;DHT22;4131;48.810;11.892;2023-02-28T14:01:48;10.60;99.90
8180;DHT22;4131;48.810;11.892;2023-02-28T14:04:49;11.00;99.90
8180;DHT22;4131;48.810;11.892;2023-02-28T14:07:22;11.20;99.90
8180;DHT22;4131;48.810;11.892;2023-02-28T14:09:57;10.60;99.90
8180;DHT22;4131;48.810;11.892;2023-02-28T14:12:57;9.90;99.90
8180;DHT22;4131;48.810;11.892;2023-02-28T14:15:39;9.30;99.90
8180;DHT22;4131;48.810;11.892;2023-02-28T14:18:26;8.80;99.90
8180;DHT22;4131;48.810;11.892;2023-02-28T14:20:58;9.00;99.90
8180;DHT22;4131;48.810;11.892;2023-02-28T14:23:57;8.70;99.90
8180;DHT22;4131;48.810;11.892;2023-02-28T14:26:49;8.90;99.90
8180;DHT22;4131;48.810;11.892;2023-02-28T14:29:36;9.00;99.90
8180;DHT22;4131;48.810;11.892;2023-02-28T14:32:15;8.90;99.90
8180;DHT22;4131;48.810;11.892;2023-02-28T14:34:51;9.30;99.90
8180;DHT22;4131;48.810;11.892;2023-02-28T14:37:27;9.60;99.90
8180;DHT22;4131;48.810;11.892;2023-02-28T14:39:57;10.00;99.90
8180;DHT22;4131;48.810;11.892;2023-02-28T14:42:33;9.20;99.90
8180;DHT22;4131;48.810;11.892;2023-02-28T14:45:02;8.00;99.90
8180;DHT22;4131;48.810;11.892;2023-02-28T14:47:32;7.40;99.90
8180;DHT22;4131;48.810;11.892;2023-02-28T14:50:02;7.10;99.90
8180;DHT22;4131;48.810;11.892;2023-02-28T14:52:32;6.50;99.90
8180;DHT22;4131;48.810;11.892;2023-02-28T14:55:04;6.20;99.90
8180;DHT22;4131;48.810;11.892;2023-02-28T14:57:42;5.70;99.90
8180;DHT22;4131;48.810;11.892;2023-02-28T15:00:23;5.30;99.90
8180;DHT22;4131;48.810;11.892;2023-02-28T15:02:52;5.10;99.90
8180;DHT22;4131;48.810;11.892;2023-02-28T15:05:26;4.90;99.90
8180;DHT22;4131;48.810;11.892;2023-02-28T15:08:04;5.00;99.90
8180;DHT22;4131;48.810;11.892;2023-02-28T15:10:33;5.00;99.90
8180;DHT22;4131;48.810;11.892;2023-02-28T15:13:06;5.20;99.90
8180;DHT22;4131;48.810;11.892;2023-02-28T15:15:41;5.40;99.90
8180;DHT22;4131;48.810;11.892;2023-02-28T15:18:31;5.40;99.90
8180;DHT22;4131;48.810;11.892;2023-02-28T15:21:04;5.20;99.90
8180;DHT22;4131;48.810;11.892;2023-02-28T15:23:35;5.10;99.90
8180;DHT22;4131;48.810;11.892;2023-02-28T15:26:04;4.80;99.90
8180;DHT22;4131;48.810;11.892;2023-02-28T15:28:34;4.70;99.90
8180;DHT22;4131;48.810;11.892;2023-02-28T15:31:04;4.70;99.90
8180;DHT22;4131;48.810;11.892;2023-02-28T15:33:52;4.50;99.90
8180;DHT22;4131;48.810;11.892;2023-02-28T15:36:25;4.40;99.90
8180;DHT22;4131;48.810;11.892;2023-02-28T15:38:55;4.30;99.90
8180;DHT22;4131;48.810;11.892;2023-02-28T15:41:37;4.40;99.90
8180;DHT22;4131;48.810;11.892;2023-02-28T15:44:22;4.30;99.90
8180;DHT22;4131;48.810;11.892;2023-02-28T15:46:59;4.20;99.90
8180;DHT22;4131;48.810;11.892;2023-02-28T15:49:29;4.10;99.90
8180;DHT22;4131;48.810;11.892;2023-02-28T15:52:13;4.10;99.90
8180;DHT22;4131;48.810;11.892;2023-02-28T15:54:41;4.00;99.90
8180;DHT22;4131;48.810;11.892;2023-02-28T15:57:15;3.90;99.90
8180;DHT22;4131;48.810;11.892;2023-02-28T15:59:51;3.80;99.90
8180;DHT22;4131;48.810;11.892;2023-02-28T16:02:21;3.70;99.90
8180;DHT22;4131;48.810;11.892;2023-02-28T16:05:12;3.70;99.90
8180;DHT22;4131;48.810;11.892;2023-02-28T16:07:45;3.70;99.90
8180;DHT22;4131;48.810;11.892;2023-02-28T16:10:15;3.60;99.90
8180;DHT22;4131;48.810;11.892;2023-02-28T16:15:21;3.40;99.90
8180;DHT22;4131;48.810;11.892;2023-02-28T16:17:50;3.30;99.90
8180;DHT22;4131;48.810;11.892;2023-02-28T16:20:21;3.30;99.90
8180;DHT22;4131;48.810;11.892;2023-02-28T16:22:49;3.20;99.90
8180;DHT22;4131;48.810;11.892;2023-02-28T16:25:19;3.20;99.90
8180;DHT22;4131;48.810;11.892;2023-02-28T16:27:49;3.10;99.90
8180;DHT22;4131;48.810;11.892;2023-02-28T16:30:22;3.00;99.90
8180;DHT22;4131;48.810;11.892;2023-02-28T16:32:51;3.00;99.90
8180;DHT22;4131;48.810;11.892;2023-02-28T16:35:20;2.90;99.90
8180;DHT22;4131;48.810;11.892;2023-02-28T16:37:50;2.90;99.90
8180;DHT22;4131;48.810;11.892;2023-02-28T16:40:21;2.80;99.90
8180;DHT22;4131;48.810;11.892;2023-02-28T16:42:53;2.80;99.90
8180;DHT22;4131;48.810;11.892;2023-02-28T16:45:26;2.70;99.90
8180;DHT22;4131;48.810;11.892;2023-02-28T16:47:55;2.70;99.90
8180;DHT22;4131;48.810;11.892;2023-02-28T16:50:25;2.70;99.90
8180;DHT22;4131;48.810;11.892;2023-02-28T16:52:54;2.70;99.90
8180;DHT22;4131;48.810;11.892;2023-02-28T16:55:22;2.70;99.90
8180;DHT22;4131;48.810;11.892;2023-02-28T16:57:52;2.60;99.90
8180;DHT22;4131;48.810;11.892;2023-02-28T17:00:21;2.60;99.90
8180;DHT22;4131;48.810;11.892;2023-02-28T17:02:53;2.50;99.90
8180;DHT22;4131;48.810;11.892;2023-02-28T17:05:22;2.60;99.90
8180;DHT22;4131;48.810;11.892;2023-02-28T17:07:51;2.50;99.90
8180;DHT22;4131;48.810;11.892;2023-02-28T17:10:20;2.50;99.90
8180;DHT22;4131;48.810;11.892;2023-02-28T17:12:49;2.40;99.90
8180;DHT22;4131;48.810;11.892;2023-02-28T17:15:18;2.40;99.90
8180;DHT22;4131;48.810;11.892;2023-02-28T17:17:47;2.40;99.90
8180;DHT22;4131;48.810;11.892;2023-02-28T17:20:19;2.40;99.90
8180;DHT22;4131;48.810;11.892;2023-02-28T17:25:17;2.20;99.90
8180;DHT22;4131;48.810;11.892;2023-02-28T17:27:46;2.10;99.90
8180;DHT22;4131;48.810;11.892;2023-02-28T17:30:16;2.10;99.90
8180;DHT22;4131;48.810;11.892;2023-02-28T17:32:45;2.00;99.90
8180;DHT22;4131;48.810;11.892;2023-02-28T17:35:13;2.00;99.90
8180;DHT22;4131;48.810;11.892;2023-02-28T17:37:43;3.90;99.90
8180;DHT22;4131;48.810;11.892;2023-02-28T17:40:14;2.00;99.90
8180;DHT22;4131;48.810;11.892;2023-02-28T17:42:43;1.90;99.90
8180;DHT22;4131;48.810;11.892;2023-02-28T17:45:13;1.90;99.90
8180;DHT22;4131;48.810;11.892;2023-02-28T17:47:43;1.80;99.90
8180;DHT22;4131;48.810;11.892;2023-02-28T17:50:15;1.80;99.90
8180;DHT22;4131;48.810;11.892;2023-02-28T17:52:45;1.80;99.90
8180;DHT22;4131;48.810;11.892;2023-02-28T17:55:13;1.80;99.90
8180;DHT22;4131;48.810;11.892;2023-02-28T17:57:42;1.80;99.90
8180;DHT22;4131;48.810;11.892;2023-02-28T18:00:12;1.80;99.90
8180;DHT22;4131;48.810;11.892;2023-02-28T18:02:40;1.80;99.90
8180;DHT22;4131;48.810;11.892;2023-02-28T18:05:09;1.80;99.90
8180;DHT22;4131;48.810;11.892;2023-02-28T18:10:12;1.80;99.90
8180;DHT22;4131;48.810;11.892;2023-02-28T18:12:41;1.80;99.90
8180;DHT22;4131;48.810;11.892;2023-02-28T18:20:09;1.60;99.90
8180;DHT22;4131;48.810;11.892;2023-02-28T18:22:38;1.60;99.90
8180;DHT22;4131;48.810;11.892;2023-02-28T18:25:09;1.60;99.90
8180;DHT22;4131;48.810;11.892;2023-02-28T18:35:17;1.50;99.90
8180;DHT22;4131;48.810;11.892;2023-02-28T18:38:06;1.50;99.90
8180;DHT22;4131;48.810;11.892;2023-02-28T18:40:36;1.50;99.90
8180;DHT22;4131;48.810;11.892;2023-02-28T18:43:05;1.50;99.90
8180;DHT22;4131;48.810;11.892;2023-02-28T18:45:35;1.40;99.90
8180;DHT22;4131;48.810;11.892;2023-02-28T18:48:04;3.50;99.90
8180;DHT22;4131;48.810;11.892;2023-02-28T18:53:01;1.40;99.90
8180;DHT22;4131;48.810;11.892;2023-02-28T18:55:30;1.40;99.90
8180;DHT22;4131;48.810;11.892;2023-02-28T18:58:00;1.40;99.90
8180;DHT22;4131;48.810;11.892;2023-02-28T19:00:28;1.30;99.90
8180;DHT22;4131;48.810;11.892;2023-02-28T19:10:22;1.30;99.90
8180;DHT22;4131;48.810;11.892;2023-02-28T19:15:20;1.20;99.90
8180;DHT22;4131;48.810;11.892;2023-02-28T19:20:17;1.20;99.90
8180;DHT22;4131;48.810;11.892;2023-02-28T19:25:14;1.10;99.90
8180;DHT22;4131;48.810;11.892;2023-02-28T19:27:42;1.10;99.90
8180;DHT22;4131;48.810;11.892;2023-02-28T19:30:11;3.40;99.90
8180;DHT22;4131;48.810;11.892;2023-02-28T19:32:40;1.00;99.90
8180;DHT22;4131;48.810;11.892;2023-02-28T19:35:08;1.00;99.90
8180;DHT22;4131;48.810;11.892;2023-02-28T19:37:37;0.90;99.90
8180;DHT22;4131;48.810;11.892;2023-02-28T19:40:06;0.90;99.90
8180;DHT22;4131;48.810;11.892;2023-02-28T19:42:36;1.00;99.90
8180;DHT22;4131;48.810;11.892;2023-02-28T19:45:04;0.90;99.90
8180;DHT22;4131;48.810;11.892;2023-02-28T19:50:07;0.90;99.90
8180;DHT22;4131;48.810;11.892;2023-02-28T19:55:04;0.90;99.90
8180;DHT22;4131;48.810;11.892;2023-02-28T20:00:01;0.90;99.90
8180;DHT22;4131;48.810;11.892;2023-02-28T20:02:29;0.80;99.90
8180;DHT22;4131;48.810;11.892;2023-02-28T20:07:28;0.70;99.90
8180;DHT22;4131;48.810;11.892;2023-02-28T20:09:57;0.60;99.90
8180;DHT22;4131;48.810;11.892;2023-02-28T20:17:22;0.60;99.90
8180;DHT22;4131;48.810;11.892;2023-02-28T20:19:51;0.50;99.90
8180;DHT22;4131;48.810;11.892;2023-02-28T20:24:49;0.50;99.90
8180;DHT22;4131;48.810;11.892;2023-02-28T20:37:10;0.50;99.90